Time;durP1;ratioP1;P1;durP2;ratioP2;P2;SDS_P1;SDS_P2;PMS_P1;PMS_P2;Temp;Humidity;BMP_temperature;BMP_pressure;BME280_temperature;BME280_humidity;BME280_pressure;Samples;Min_cycle;Max_cycle;Signal;HPM_P1;HPM_P2
2022/09/18 00:01:18;;;;;;;10.38;1.85;;;10.40;99.90;;;;;;5060574;28;20045;-70
2022/09/18 00:03:45;;;;;;;10.60;1.83;;;10.50;99.90;;;;;;5064708;28;20041;-70
2022/09/18 00:06:13;;;;;;;17.83;2.15;;;10.50;99.90;;;;;;5064901;28;20091;-71
2022/09/18 00:08:40;;;;;;;17.73;2.67;;;10.50;99.90;;;;;;5066938;28;20048;-70
2022/09/18 00:11:07;;;;;;;13.18;1.67;;;10.50;99.90;;;;;;5068791;28;20160;-70
2022/09/18 00:13:35;;;;;;;15.32;2.28;;;10.40;99.90;;;;;;5073049;28;20041;-69
2022/09/18 00:16:02;;;;;;;18.02;2.00;;;10.50;99.90;;;;;;5071834;28;20080;-69
2022/09/18 00:18:27;;;;;;;13.23;2.10;;;10.40;99.90;;;;;;5057168;28;20055;-69
2022/09/18 00:20:53;;;;;;;14.75;1.73;;;10.40;99.90;;;;;;5067240;28;20037;-70
2022/09/18 00:23:19;;;;;;;15.23;1.70;;;10.40;99.90;;;;;;5052497;28;20049;-69
2022/09/18 00:25:44;;;;;;;9.75;1.65;;;10.30;99.90;;;;;;5063587;28;20118;-69
2022/09/18 00:28:10;;;;;;;9.35;1.77;;;10.30;99.90;;;;;;5035607;28;20049;-69
2022/09/18 00:30:35;;;;;;;10.25;1.63;;;10.30;99.90;;;;;;5060129;28;20055;-70
2022/09/18 00:33:01;;;;;;;12.82;1.77;;;10.40;99.90;;;;;;5072695;28;20059;-69
2022/09/18 00:35:27;;;;;;;13.73;1.80;;;10.40;99.90;;;;;;5071667;28;20036;-70
2022/09/18 00:37:52;;;;;;;10.32;1.58;;;10.50;99.90;;;;;;5042590;28;20128;-69
2022/09/18 00:40:18;;;;;;;14.52;1.65;;;10.40;99.90;;;;;;5061147;28;20045;-69
2022/09/18 00:42:44;;;;;;;9.05;1.15;;;10.60;99.90;;;;;;5063264;28;20044;-70
2022/09/18 00:45:10;;;;;;;10.68;1.63;;;10.50;99.90;;;;;;5071931;28;20041;-70
2022/09/18 00:47:46;;;;;;;12.88;1.77;;;10.40;99.90;;;;;;5055594;28;20047;-70
2022/09/18 00:50:20;;;;;;;10.93;1.48;;;10.50;99.90;;;;;;5073039;28;20588;-70
2022/09/18 00:52:53;;;;;;;8.07;1.30;;;10.40;99.90;;;;;;5069767;28;20037;-70
2022/09/18 00:55:25;;;;;;;15.35;1.65;;;10.40;99.90;;;;;;5051527;28;20053;-70
2022/09/18 00:57:54;;;;;;;14.35;1.67;;;10.40;99.90;;;;;;5035320;28;20052;-70
2022/09/18 01:00:21;;;;;;;12.82;1.65;;;10.40;99.90;;;;;;5053142;28;20132;-70
2022/09/18 01:02:47;;;;;;;18.80;1.95;;;10.30;99.90;;;;;;5053028;28;20088;-70
2022/09/18 01:05:17;;;;;;;18.75;1.65;;;10.40;99.90;;;;;;5052473;28;20053;-70
2022/09/18 01:08:11;;;;;;;11.35;2.30;;;10.50;99.90;;;;;;5035059;28;20041;-70
2022/09/18 01:11:12;;;;;;;8.88;1.70;;;10.40;99.90;;;;;;5068156;28;20048;-70
2022/09/18 01:14:03;;;;;;;8.48;1.35;;;10.40;99.90;;;;;;5065090;28;20127;-71
2022/09/18 01:16:48;;;;;;;14.65;1.83;;;10.40;99.90;;;;;;5049699;28;20597;-70
2022/09/18 01:19:42;;;;;;;11.73;1.63;;;10.10;99.90;;;;;;5056465;28;20044;-70
2022/09/18 01:22:35;;;;;;;11.20;1.38;;;10.20;99.90;;;;;;5053226;28;20125;-69
2022/09/18 01:25:32;;;;;;;8.40;1.40;;;10.20;99.90;;;;;;5062680;28;20132;-71
2022/09/18 01:28:29;;;;;;;6.97;1.58;;;10.10;99.90;;;;;;5046363;28;20049;-70
2022/09/18 01:31:01;;;;;;;13.43;1.63;;;10.10;99.90;;;;;;5051235;28;20056;-70
2022/09/18 01:34:11;;;;;;;9.90;1.52;;;10.20;99.90;;;;;;5068372;28;20515;-71
2022/09/18 01:36:40;;;;;;;11.20;1.90;;;10.10;99.90;;;;;;5025793;28;20060;-71
2022/09/18 01:39:21;;;;;;;6.80;1.40;;;10.30;99.90;;;;;;5052762;28;20098;-70
2022/09/18 01:41:50;;;;;;;9.20;1.57;;;10.30;99.90;;;;;;5056953;28;20057;-70
2022/09/18 01:44:20;;;;;;;10.55;1.58;;;10.30;99.90;;;;;;5069785;28;20139;-69
2022/09/18 01:46:48;;;;;;;9.18;1.70;;;10.50;99.90;;;;;;5050261;28;20098;-71
2022/09/18 01:49:22;;;;;;;11.98;1.77;;;10.60;99.90;;;;;;5051003;28;20069;-70
2022/09/18 01:52:08;;;;;;;15.40;1.92;;;10.60;99.90;;;;;;5050313;28;20080;-71
2022/09/18 01:54:37;;;;;;;12.07;1.70;;;10.60;99.90;;;;;;5051901;28;20446;-69
2022/09/18 01:57:09;;;;;;;10.40;1.40;;;10.70;99.90;;;;;;5055251;28;20037;-67
2022/09/18 01:59:47;;;;;;;13.25;1.65;;;10.70;99.90;;;;;;5070292;28;20083;-70
2022/09/18 02:02:19;;;;;;;10.25;1.60;;;10.70;99.90;;;;;;5069683;28;20044;-69
2022/09/18 02:04:49;;;;;;;8.07;1.58;;;10.70;99.90;;;;;;5051073;28;20075;-70
2022/09/18 02:07:30;;;;;;;12.07;1.85;;;10.70;99.90;;;;;;5033917;28;20153;-70
2022/09/18 02:09:57;;;;;;;;;;;10.70;99.90;;;;;;5052441;28;20123;-70
2022/09/18 02:12:25;;;;;;;13.13;1.77;;;10.70;99.90;;;;;;5060392;28;20367;-70
2022/09/18 02:14:54;;;;;;;17.67;2.05;;;10.80;99.90;;;;;;5070300;28;20056;-70
2022/09/18 02:17:32;;;;;;;11.63;1.77;;;10.80;99.90;;;;;;5052680;28;20052;-70
2022/09/18 02:20:02;;;;;;;15.00;2.08;;;10.80;99.90;;;;;;5071558;28;20403;-70
2022/09/18 02:22:31;;;;;;;14.10;2.15;;;10.90;99.90;;;;;;5069186;28;20067;-70
2022/09/18 02:25:00;;;;;;;14.50;2.28;;;10.90;99.90;;;;;;5073931;28;20063;-70
2022/09/18 02:27:27;;;;;;;15.90;2.22;;;11.00;99.90;;;;;;5060907;28;20522;-70
2022/09/18 02:29:55;;;;;;;17.35;2.40;;;10.90;99.90;;;;;;5076374;28;20468;-70
2022/09/18 02:32:20;;;;;;;14.02;2.08;;;10.90;99.90;;;;;;5061832;28;20382;-70
2022/09/18 02:34:47;;;;;;;8.88;1.67;;;10.90;99.90;;;;;;5049477;28;20063;-71
2022/09/18 02:37:26;;;;;;;12.68;2.13;;;10.90;99.90;;;;;;5034317;28;20124;-71
2022/09/18 02:40:18;;;;;;;12.48;2.42;;;11.00;99.90;;;;;;5059707;28;20056;-71
2022/09/18 02:42:57;;;;;;;12.45;2.35;;;10.80;99.90;;;;;;5066359;28;20619;-71
2022/09/18 02:45:52;;;;;;;9.35;1.85;;;10.80;99.90;;;;;;5039718;28;20048;-71
2022/09/18 02:48:58;;;;;;;13.13;1.70;;;10.70;99.90;;;;;;5054144;28;20048;-70
2022/09/18 02:51:33;;;;;;;12.07;1.70;;;10.70;99.90;;;;;;5054881;28;20072;-70
2022/09/18 02:54:28;;;;;;;11.85;2.03;;;10.80;99.90;;;;;;5066920;28;20045;-71
2022/09/18 02:57:26;;;;;;;11.05;2.25;;;10.90;99.90;;;;;;5035271;28;20045;-71
2022/09/18 02:59:55;;;;;;;11.73;1.83;;;10.90;99.90;;;;;;5046711;28;20056;-72
2022/09/18 03:02:21;;;;;;;8.15;1.63;;;10.80;99.90;;;;;;5056762;28;20060;-71
2022/09/18 03:04:48;;;;;;;10.98;1.38;;;10.80;99.90;;;;;;5069014;28;20063;-71
2022/09/18 03:07:15;;;;;;;9.77;1.70;;;10.90;99.90;;;;;;5052365;28;20044;-70
2022/09/18 03:09:41;;;;;;;8.77;1.80;;;10.80;99.90;;;;;;5070425;28;20434;-70
2022/09/18 03:12:07;;;;;;;11.95;2.10;;;10.60;99.90;;;;;;5067915;28;20044;-71
2022/09/18 03:14:34;;;;;;;10.93;1.40;;;10.60;99.90;;;;;;5069099;28;20044;-71
2022/09/18 03:17:00;;;;;;;10.40;1.38;;;10.50;99.90;;;;;;5040295;28;20064;-70
2022/09/18 03:19:25;;;;;;;8.38;1.50;;;10.40;99.90;;;;;;5047406;28;20049;-70
2022/09/18 03:21:51;;;;;;;8.23;1.45;;;10.40;99.90;;;;;;5062445;28;20046;-70
2022/09/18 03:24:18;;;;;;;9.38;1.55;;;10.30;99.90;;;;;;5036601;28;20396;-69
2022/09/18 03:26:44;;;;;;;8.00;1.52;;;10.20;99.90;;;;;;5038161;28;20132;-70
2022/09/18 03:29:10;;;;;;;7.32;1.30;;;10.20;99.90;;;;;;5049377;28;20462;-68
2022/09/18 03:31:36;;;;;;;10.00;1.35;;;10.10;99.90;;;;;;5048751;28;20064;-68
2022/09/18 03:34:02;;;;;;;8.45;1.40;;;10.10;99.90;;;;;;5047833;28;20051;-69
2022/09/18 03:36:28;;;;;;;16.48;1.52;;;10.10;99.90;;;;;;5064495;28;20625;-69
2022/09/18 03:38:54;;;;;;;11.43;1.13;;;10.00;99.90;;;;;;5047487;28;20088;-69
2022/09/18 03:41:21;;;;;;;8.18;1.50;;;10.00;99.90;;;;;;5069954;28;20079;-69
2022/09/18 03:43:47;;;;;;;8.63;1.35;;;10.00;99.90;;;;;;5068863;28;20056;-68
2022/09/18 03:46:13;;;;;;;12.52;2.08;;;10.10;99.90;;;;;;5045767;28;20049;-70
2022/09/18 03:48:39;;;;;;;9.65;1.60;;;10.00;99.90;;;;;;5069729;28;20051;-69
2022/09/18 03:51:05;;;;;;;10.75;2.05;;;10.00;99.90;;;;;;5076701;28;20044;-68
2022/09/18 03:53:30;;;;;;;11.25;2.05;;;10.00;99.90;;;;;;5067783;28;20048;-69
2022/09/18 03:55:56;;;;;;;11.02;1.70;;;10.00;99.90;;;;;;5068301;28;20059;-68
2022/09/18 03:58:22;;;;;;;15.13;2.00;;;10.10;99.90;;;;;;5046958;28;20041;-68
2022/09/18 04:00:47;;;;;;;13.15;1.60;;;10.10;99.90;;;;;;5049136;28;20136;-70
2022/09/18 04:03:13;;;;;;;14.43;1.70;;;10.10;99.90;;;;;;5033330;28;20492;-69
2022/09/18 04:05:39;;;;;;;11.82;1.92;;;10.10;99.90;;;;;;5064210;28;20044;-69
2022/09/18 04:08:04;;;;;;;13.88;1.73;;;10.20;99.90;;;;;;5053960;28;20045;-69
2022/09/18 04:10:31;;;;;;;11.70;1.65;;;10.20;99.90;;;;;;5082736;28;20044;-69
2022/09/18 04:12:57;;;;;;;12.68;1.85;;;10.20;99.90;;;;;;5080406;28;20135;-69
2022/09/18 04:15:23;;;;;;;10.48;1.48;;;10.30;99.90;;;;;;5083427;28;20597;-69
2022/09/18 04:17:48;;;;;;;10.35;1.40;;;10.20;99.90;;;;;;5063468;28;20049;-69
2022/09/18 04:20:14;;;;;;;12.13;1.52;;;10.10;99.90;;;;;;5061291;28;20082;-69
2022/09/18 04:22:40;;;;;;;11.07;1.40;;;10.10;99.90;;;;;;5055180;28;20081;-69
2022/09/18 04:25:06;;;;;;;7.80;1.52;;;10.10;99.90;;;;;;5068360;28;20560;-69
2022/09/18 04:27:33;;;;;;;7.03;1.40;;;10.10;99.90;;;;;;5035440;28;20421;-68
2022/09/18 04:29:59;;;;;;;9.23;1.48;;;10.20;99.90;;;;;;5064572;28;20049;-68
2022/09/18 04:32:25;;;;;;;7.73;1.27;;;10.10;99.90;;;;;;5058604;28;20394;-68
2022/09/18 04:34:50;;;;;;;11.23;1.30;;;10.10;99.90;;;;;;5048484;28;20045;-69
2022/09/18 04:37:16;;;;;;;9.57;1.20;;;10.20;99.90;;;;;;5034455;28;20515;-69
2022/09/18 04:39:42;;;;;;;10.43;1.45;;;10.20;99.90;;;;;;5057381;28;20372;-69
2022/09/18 04:42:07;;;;;;;6.60;1.05;;;10.20;99.90;;;;;;5071612;28;20049;-69
2022/09/18 04:44:33;;;;;;;12.15;1.38;;;10.10;99.90;;;;;;5071865;28;20056;-69
2022/09/18 04:46:59;;;;;;;7.88;1.17;;;10.10;99.90;;;;;;5050091;28;20480;-70
2022/09/18 04:49:24;;;;;;;9.95;1.45;;;10.10;99.90;;;;;;5052527;28;20555;-69
2022/09/18 04:51:50;;;;;;;5.82;1.10;;;10.00;99.90;;;;;;5052574;28;20127;-69
2022/09/18 04:54:16;;;;;;;10.07;1.17;;;10.00;99.90;;;;;;5052192;28;20045;-69
2022/09/18 04:56:41;;;;;;;6.65;1.17;;;10.00;99.90;;;;;;5037735;28;20699;-70
2022/09/18 04:59:07;;;;;;;6.55;1.00;;;10.00;99.90;;;;;;5050578;28;20077;-70
2022/09/18 05:01:33;;;;;;;9.85;1.13;;;10.00;99.90;;;;;;5071565;28;20153;-70
2022/09/18 05:03:59;;;;;;;11.32;1.33;;;10.00;99.90;;;;;;5071182;28;20044;-69
2022/09/18 05:06:25;;;;;;;9.00;1.45;;;10.00;99.90;;;;;;5043888;28;20051;-70
2022/09/18 05:08:50;;;;;;;6.78;1.35;;;10.00;99.90;;;;;;5048051;28;20076;-71
2022/09/18 05:11:16;;;;;;;9.27;1.23;;;10.10;99.90;;;;;;5054484;28;20053;-68
2022/09/18 05:13:42;;;;;;;7.70;1.10;;;10.10;99.90;;;;;;5053939;28;20045;-68
2022/09/18 05:16:08;;;;;;;7.45;1.20;;;10.10;99.90;;;;;;5067829;28;20051;-71
2022/09/18 05:18:34;;;;;;;3.50;0.60;;;10.00;99.90;;;;;;5046361;28;20488;-69
2022/09/18 05:21:04;;;;;;;4.78;0.70;;;10.00;99.90;;;;;;5058988;28;20085;-69
2022/09/18 05:23:32;;;;;;;5.22;0.80;;;10.00;99.90;;;;;;5069982;28;20083;-68
2022/09/18 05:25:58;;;;;;;3.10;0.63;;;9.90;99.90;;;;;;5063651;28;20404;-68
2022/09/18 05:28:23;;;;;;;3.22;0.73;;;9.90;99.90;;;;;;5038207;28;20059;-67
2022/09/18 05:30:49;;;;;;;2.53;0.35;;;9.80;99.90;;;;;;5064633;28;20124;-68
2022/09/18 05:33:15;;;;;;;6.30;0.80;;;9.80;99.90;;;;;;5067674;28;20393;-67
2022/09/18 05:35:41;;;;;;;6.07;1.00;;;9.80;99.90;;;;;;5070879;28;20114;-68
2022/09/18 05:38:09;;;;;;;7.97;0.95;;;9.80;99.90;;;;;;5038954;28;20052;-68
2022/09/18 05:40:36;;;;;;;5.88;1.23;;;9.90;99.90;;;;;;5070370;28;20091;-68
2022/09/18 05:43:02;;;;;;;5.82;0.88;;;9.90;99.90;;;;;;5069912;28;20055;-68
2022/09/18 05:45:28;;;;;;;8.30;1.10;;;9.90;99.90;;;;;;5072180;28;20050;-68
2022/09/18 05:47:55;;;;;;;7.55;0.85;;;9.90;99.90;;;;;;5064811;28;20052;-68
2022/09/18 05:50:22;;;;;;;10.77;1.33;;;10.00;99.90;;;;;;5071978;28;20525;-67
2022/09/18 05:53:10;;;;;;;6.70;1.20;;;10.10;99.90;;;;;;5061553;28;20052;-68
2022/09/18 05:55:36;;;;;;;5.90;0.93;;;10.10;99.90;;;;;;5066088;28;20080;-68
2022/09/18 05:58:03;;;;;;;13.18;1.10;;;10.20;99.90;;;;;;5051169;28;20103;-68
2022/09/18 06:00:31;;;;;;;5.90;1.33;;;10.10;99.90;;;;;;5063352;28;20484;-68
2022/09/18 06:03:02;;;;;;;7.70;1.50;;;10.10;99.90;;;;;;5068794;28;20078;-68
2022/09/18 06:05:30;;;;;;;11.65;1.10;;;10.20;99.90;;;;;;5052538;28;20128;-68
2022/09/18 06:07:57;;;;;;;13.30;1.58;;;10.20;99.90;;;;;;5047967;28;20496;-69
2022/09/18 06:10:24;;;;;;;13.93;1.88;;;10.40;99.90;;;;;;5069006;28;20582;-68
2022/09/18 06:12:49;;;;;;;13.77;2.28;;;10.30;99.90;;;;;;5058455;28;20049;-68
2022/09/18 06:15:16;;;;;;;13.18;1.95;;;10.40;99.90;;;;;;5068989;28;20432;-69
2022/09/18 06:17:42;;;;;;;7.88;1.77;;;10.40;99.90;;;;;;5034915;28;20045;-69
2022/09/18 06:20:08;;;;;;;15.32;2.13;;;10.40;99.90;;;;;;5062712;28;20452;-69
2022/09/18 06:22:35;;;;;;;6.93;1.42;;;10.40;99.90;;;;;;5057237;28;20076;-69
2022/09/18 06:25:01;;;;;;;5.25;0.90;;;10.40;99.90;;;;;;5067360;28;20048;-68
2022/09/18 06:27:27;;;;;;;7.03;0.73;;;10.30;99.90;;;;;;5050580;28;20052;-69
2022/09/18 06:29:53;;;;;;;7.82;0.70;;;10.30;99.90;;;;;;5066994;28;20044;-69
2022/09/18 06:32:19;;;;;;;3.53;0.60;;;10.30;99.90;;;;;;5085167;28;20044;-69
2022/09/18 06:34:46;;;;;;;6.35;0.90;;;10.20;99.90;;;;;;5049874;28;20092;-70
2022/09/18 06:37:13;;;;;;;5.03;0.70;;;10.20;99.90;;;;;;5046229;28;20036;-70
2022/09/18 06:39:39;;;;;;;5.82;0.68;;;10.20;99.90;;;;;;5075522;28;20060;-70
2022/09/18 06:42:05;;;;;;;9.20;0.85;;;10.20;99.90;;;;;;5067347;28;20052;-69
2022/09/18 06:44:31;;;;;;;9.80;0.90;;;10.20;99.90;;;;;;5060118;28;20131;-69
2022/09/18 06:46:57;;;;;;;7.45;1.10;;;10.30;99.90;;;;;;5051051;28;20123;-70
2022/09/18 06:49:22;;;;;;;6.00;0.82;;;10.30;99.90;;;;;;5062466;28;20062;-70
2022/09/18 06:51:48;;;;;;;8.23;1.13;;;10.30;99.90;;;;;;5067139;28;20373;-70
2022/09/18 06:54:15;;;;;;;10.13;1.00;;;10.30;99.90;;;;;;5056659;28;20048;-70
2022/09/18 06:56:41;;;;;;;15.98;1.33;;;10.40;99.90;;;;;;5063257;28;20052;-69
2022/09/18 06:59:06;;;;;;;5.95;1.05;;;10.40;99.90;;;;;;5055041;28;20385;-70
2022/09/18 07:01:32;;;;;;;9.18;1.13;;;10.40;99.90;;;;;;5069641;28;20079;-69
2022/09/18 07:03:59;;;;;;;10.57;1.02;;;10.40;99.90;;;;;;5062916;28;20044;-69
2022/09/18 07:06:25;;;;;;;6.03;1.00;;;10.40;99.90;;;;;;5058164;28;20054;-70
2022/09/18 07:08:51;;;;;;;8.23;0.77;;;10.40;99.90;;;;;;5064219;28;20538;-69
2022/09/18 07:11:17;;;;;;;6.28;0.93;;;10.30;99.90;;;;;;5069949;28;20052;-69
2022/09/18 07:13:44;;;;;;;7.70;1.02;;;10.30;99.90;;;;;;5060501;28;20451;-69
2022/09/18 07:16:09;;;;;;;4.78;0.82;;;10.40;99.90;;;;;;5063257;28;20484;-69
2022/09/18 07:18:35;;;;;;;7.50;0.85;;;10.40;99.90;;;;;;5051647;28;20044;-69
2022/09/18 07:21:01;;;;;;;5.97;0.85;;;10.40;99.90;;;;;;5060337;28;20672;-69
2022/09/18 07:23:28;;;;;;;5.07;0.85;;;10.40;99.90;;;;;;5052344;28;20527;-68
2022/09/18 07:25:54;;;;;;;10.18;1.02;;;10.40;99.90;;;;;;5066660;28;20483;-68
2022/09/18 07:28:20;;;;;;;5.90;0.90;;;10.40;99.90;;;;;;5048271;28;20118;-68
2022/09/18 07:30:46;;;;;;;10.60;0.82;;;10.40;99.90;;;;;;5061145;28;20041;-69
2022/09/18 07:33:12;;;;;;;11.65;1.20;;;10.50;99.90;;;;;;5049558;28;20053;-68
2022/09/18 07:35:37;;;;;;;9.20;1.35;;;10.50;99.90;;;;;;5050196;28;20507;-69
2022/09/18 07:38:05;;;;;;;14.23;2.00;;;10.50;99.90;;;;;;5048368;28;20052;-69
2022/09/18 07:40:31;;;;;;;9.18;1.35;;;10.60;99.90;;;;;;5063299;28;20420;-71
2022/09/18 07:42:59;;;;;;;8.45;1.48;;;10.60;99.90;;;;;;5050514;28;20068;-70
2022/09/18 07:45:25;;;;;;;10.17;1.67;;;10.50;99.90;;;;;;5053483;28;20420;-70
2022/09/18 07:47:50;;;;;;;10.63;1.80;;;10.50;99.90;;;;;;5058169;28;20041;-70
2022/09/18 07:50:16;;;;;;;5.57;1.13;;;10.50;99.90;;;;;;5049279;28;20041;-70
2022/09/18 07:52:54;;;;;;;11.68;1.63;;;10.60;99.90;;;;;;5046512;28;20047;-70
2022/09/18 07:55:20;;;;;;;9.25;1.67;;;10.50;99.90;;;;;;5045781;28;20392;-69
2022/09/18 07:57:58;;;;;;;7.55;1.50;;;10.40;99.90;;;;;;5029510;28;20103;-70
2022/09/18 08:00:28;;;;;;;11.23;1.70;;;10.50;99.90;;;;;;5039557;28;20075;-70
2022/09/18 08:03:02;;;;;;;5.78;1.20;;;10.50;99.90;;;;;;5038274;28;20041;-70
2022/09/18 08:05:28;;;;;;;4.00;1.27;;;10.40;99.90;;;;;;5066097;28;20092;-70
2022/09/18 08:07:53;;;;;;;9.75;1.98;;;10.40;99.90;;;;;;5053321;28;20071;-69
2022/09/18 08:10:19;;;;;;;10.30;1.45;;;10.40;99.90;;;;;;5069651;28;20047;-70
2022/09/18 08:12:44;;;;;;;14.27;1.42;;;10.40;99.90;;;;;;5069010;28;20128;-70
2022/09/18 08:15:10;;;;;;;11.57;1.65;;;10.30;99.90;;;;;;5069790;28;20048;-70
2022/09/18 08:17:45;;;;;;;9.13;1.40;;;10.40;99.90;;;;;;5057576;28;20105;-69
2022/09/18 08:20:11;;;;;;;7.50;1.50;;;10.40;99.90;;;;;;5073127;28;20567;-69
2022/09/18 08:22:38;;;;;;;6.80;1.20;;;10.30;99.90;;;;;;5063686;28;20049;-69
2022/09/18 08:25:05;;;;;;;7.68;1.05;;;10.40;99.90;;;;;;5063732;28;20080;-69
2022/09/18 08:27:30;;;;;;;6.78;0.85;;;10.40;99.90;;;;;;5035858;28;20045;-69
2022/09/18 08:29:57;;;;;;;8.60;1.15;;;10.30;99.90;;;;;;5035582;28;20049;-69
2022/09/18 08:32:22;;;;;;;8.23;1.17;;;10.30;99.90;;;;;;5052869;28;20056;-69
2022/09/18 08:34:48;;;;;;;6.97;1.35;;;10.30;99.90;;;;;;5068397;28;20055;-69
2022/09/18 08:37:14;;;;;;;6.82;1.08;;;10.30;99.90;;;;;;5056999;28;20097;-70
2022/09/18 08:39:39;;;;;;;10.27;1.50;;;10.40;99.90;;;;;;5072869;28;20048;-70
2022/09/18 08:42:21;;;;;;;12.57;1.80;;;10.30;99.90;;;;;;5069277;28;20131;-69
2022/09/18 08:44:48;;;;;;;10.48;1.90;;;10.30;99.90;;;;;;5063442;28;20511;-70
2022/09/18 08:47:35;;;;;;;16.00;1.70;;;10.30;99.90;;;;;;5055778;28;20056;-70
2022/09/18 08:50:19;;;;;;;14.13;2.00;;;10.30;99.90;;;;;;5055288;28;20088;-71
2022/09/18 08:52:49;;;;;;;9.32;1.58;;;10.30;99.90;;;;;;5051010;28;20045;-71
2022/09/18 08:55:29;;;;;;;6.97;1.47;;;10.30;99.90;;;;;;5053100;28;20055;-71
2022/09/18 08:58:12;;;;;;;11.02;1.60;;;10.20;99.90;;;;;;5051449;28;20033;-71
2022/09/18 09:00:45;;;;;;;7.07;1.08;;;10.20;99.90;;;;;;5073033;28;20122;-70
2022/09/18 09:03:54;;;;;;;14.07;1.85;;;10.20;99.90;;;;;;5060386;28;20056;-70
2022/09/18 09:06:41;;;;;;;13.88;1.77;;;10.20;99.90;;;;;;5051098;28;20121;-70
2022/09/18 09:09:37;;;;;;;9.87;2.00;;;10.10;99.90;;;;;;5052009;28;20041;-68
2022/09/18 09:12:28;;;;;;;15.73;2.07;;;10.00;99.90;;;;;;5070219;28;20032;-68
2022/09/18 09:15:26;;;;;;;13.87;2.23;;;10.00;99.90;;;;;;5072916;28;20395;-70
2022/09/18 09:18:16;;;;;;;11.13;2.00;;;10.00;99.90;;;;;;5034695;28;20455;-71
2022/09/18 09:20:51;;;;;;;9.40;2.10;;;10.00;99.90;;;;;;5051214;28;20542;-71
2022/09/18 09:23:19;;;;;;;12.60;1.90;;;10.00;99.90;;;;;;5064384;28;20043;-71
2022/09/18 09:26:23;;;;;;;17.30;2.17;;;10.00;99.90;;;;;;5062279;28;20128;-69
2022/09/18 09:28:50;;;;;;;10.37;1.77;;;10.10;99.90;;;;;;5005192;28;20184;-70
2022/09/18 09:31:21;;;;;;;11.13;2.13;;;10.20;99.90;;;;;;5010220;28;20085;-69
2022/09/18 09:34:17;;;;;;;9.05;1.70;;;10.20;99.90;;;;;;5044313;28;20059;-69
2022/09/18 09:36:47;;;;;;;11.43;1.50;;;10.20;99.90;;;;;;5056438;28;20169;-70
2022/09/18 09:39:38;;;;;;;13.17;1.80;;;10.20;99.90;;;;;;5072078;28;20070;-70
2022/09/18 09:42:13;;;;;;;16.23;2.55;;;10.30;99.90;;;;;;5051296;28;20040;-68
2022/09/18 09:44:48;;;;;;;11.87;2.07;;;10.30;99.90;;;;;;5071459;28;20091;-70
2022/09/18 09:47:41;;;;;;;13.87;1.80;;;10.30;99.90;;;;;;5056103;28;20041;-69
2022/09/18 09:50:18;;;;;;;17.63;2.20;;;10.40;99.90;;;;;;5072235;28;20135;-69
2022/09/18 09:52:46;;;;;;;11.07;2.00;;;10.40;99.90;;;;;;5070814;28;20041;-70
2022/09/18 09:55:18;;;;;;;13.63;1.90;;;10.40;99.90;;;;;;5072235;28;20084;-69
2022/09/18 09:58:11;;;;;;;14.40;2.40;;;10.50;99.90;;;;;;5036984;28;20079;-69
2022/09/18 10:00:49;;;;;;;13.55;2.45;;;10.50;99.90;;;;;;5071822;28;20052;-69
2022/09/18 10:03:30;;;;;;;14.23;2.38;;;10.60;99.90;;;;;;5063711;28;20033;-70
2022/09/18 10:06:17;;;;;;;10.35;2.13;;;10.60;99.90;;;;;;5064619;28;20531;-70
2022/09/18 10:08:54;;;;;;;18.42;2.20;;;10.70;99.90;;;;;;5040253;28;20044;-69
2022/09/18 10:11:20;;;;;;;13.50;2.08;;;10.70;99.90;;;;;;5054069;28;20159;-70
2022/09/18 10:14:01;;;;;;;11.88;2.13;;;10.70;99.90;;;;;;5052462;28;20048;-70
2022/09/18 10:16:33;;;;;;;19.98;2.72;;;10.80;99.90;;;;;;5057953;28;20078;-70
2022/09/18 10:19:00;;;;;;;12.45;2.03;;;10.80;99.90;;;;;;5049123;28;20132;-70
2022/09/18 10:21:30;;;;;;;19.15;3.10;;;11.00;99.90;;;;;;5051337;28;20056;-70
2022/09/18 10:24:17;;;;;;;16.83;2.85;;;10.90;99.90;;;;;;5065559;28;20098;-70
2022/09/18 10:26:48;;;;;;;10.65;2.33;;;11.00;99.90;;;;;;5054815;28;20052;-71
2022/09/18 10:29:17;;;;;;;21.33;2.55;;;11.10;99.90;;;;;;5049850;28;20064;-70
2022/09/18 10:31:58;;;;;;;14.25;2.28;;;11.20;99.90;;;;;;5079542;28;20079;-70
2022/09/18 10:34:47;;;;;;;15.48;2.30;;;11.20;99.90;;;;;;5068797;28;20032;-73
2022/09/18 10:37:16;;;;;;;11.75;2.00;;;11.40;99.90;;;;;;5034490;28;20095;-72
2022/09/18 10:39:52;;;;;;;6.50;1.52;;;11.40;99.90;;;;;;5063797;28;20049;-72
2022/09/18 10:42:23;;;;;;;12.52;1.27;;;11.50;99.90;;;;;;5069864;28;20125;-72
2022/09/18 10:44:57;;;;;;;7.00;1.25;;;11.60;99.90;;;;;;5073414;28;20036;-73
2022/09/18 10:47:25;;;;;;;8.80;1.42;;;11.50;99.90;;;;;;5053586;28;20058;-72
2022/09/18 10:49:56;;;;;;;8.30;1.35;;;11.60;99.90;;;;;;5054027;28;20091;-73
2022/09/18 10:52:32;;;;;;;10.73;1.33;;;11.70;99.90;;;;;;5049795;28;20052;-73
2022/09/18 10:55:07;;;;;;;7.45;1.48;;;11.80;99.90;;;;;;5055350;28;20052;-73
2022/09/18 10:57:42;;;;;;;13.30;1.80;;;11.90;99.90;;;;;;5054414;28;20048;-72
2022/09/18 11:00:35;;;;;;;8.75;1.75;;;11.90;99.90;;;;;;5070279;28;20570;-73
2022/09/18 11:03:29;;;;;;;10.43;1.88;;;12.10;99.90;;;;;;5039987;28;20375;-72
2022/09/18 11:06:05;;;;;;;8.57;1.40;;;12.10;99.90;;;;;;5052643;28;20403;-72
2022/09/18 11:08:35;;;;;;;8.95;1.25;;;12.30;99.90;;;;;;5044676;28;20098;-72
2022/09/18 11:11:28;;;;;;;9.00;1.08;;;12.50;99.90;;;;;;5068078;28;20052;-72
2022/09/18 11:14:06;;;;;;;6.68;1.25;;;12.50;99.90;;;;;;5067569;28;20048;-73
2022/09/18 11:16:37;;;;;;;5.28;0.95;;;12.60;99.90;;;;;;5059364;28;21053;-73
2022/09/18 11:19:12;;;;;;;8.00;1.10;;;12.50;99.90;;;;;;5067925;28;20048;-74
2022/09/18 11:21:54;;;;;;;6.97;1.35;;;12.60;99.90;;;;;;5070493;28;20399;-74
2022/09/18 11:24:26;;;;;;;9.32;1.40;;;12.70;99.90;;;;;;5067670;28;20463;-73
2022/09/18 11:27:16;;;;;;;11.55;1.40;;;12.80;99.90;;;;;;5044592;28;20058;-73
2022/09/18 11:29:41;;;;;;;11.50;1.63;;;12.80;99.90;;;;;;5076523;28;20044;-73
2022/09/18 11:32:26;;;;;;;11.90;1.52;;;12.90;99.90;;;;;;5048745;28;20053;-72
2022/09/18 11:34:57;;;;;;;15.90;1.83;;;12.80;99.90;;;;;;5050198;28;20099;-73
2022/09/18 11:37:42;;;;;;;6.90;1.38;;;12.80;99.90;;;;;;5034596;28;20029;-72
2022/09/18 11:40:17;;;;;;;8.70;1.40;;;13.00;99.90;;;;;;5069637;28;20044;-74
2022/09/18 11:42:45;;;;;;;8.43;1.30;;;13.00;99.90;;;;;;5067570;28;20040;-74
2022/09/18 11:45:39;;;;;;;7.90;1.80;;;13.10;99.90;;;;;;5068643;28;20084;-73
2022/09/18 11:48:22;;;;;;;14.52;1.40;;;13.10;99.90;;;;;;5046972;28;20048;-74
2022/09/18 11:50:51;;;;;;;5.32;1.15;;;13.10;99.90;;;;;;5049514;28;20408;-72
2022/09/18 11:53:28;;;;;;;8.05;1.20;;;13.10;99.90;;;;;;5052015;28;20076;-73
2022/09/18 11:56:06;;;;;;;8.63;1.50;;;13.10;99.90;;;;;;5052808;28;20045;-73
2022/09/18 11:58:47;;;;;;;7.70;1.30;;;13.10;99.90;;;;;;5040750;28;20084;-74
2022/09/18 12:01:37;;;;;;;13.00;1.58;;;13.10;99.90;;;;;;5068810;28;20080;-73
2022/09/18 12:04:06;;;;;;;10.50;1.20;;;13.10;99.90;;;;;;5059198;28;20091;-73
2022/09/18 12:07:07;;;;;;;11.98;1.35;;;13.20;99.90;;;;;;5061657;28;20663;-73
2022/09/18 12:09:54;;;;;;;10.35;1.27;;;13.20;99.90;;;;;;5053173;28;20079;-72
2022/09/18 12:12:34;;;;;;;8.93;1.17;;;13.20;99.90;;;;;;5051480;28;20702;-73
2022/09/18 12:15:12;;;;;;;8.07;1.37;;;13.20;99.90;;;;;;5048999;28;20111;-74
2022/09/18 12:17:54;;;;;;;5.68;1.50;;;13.20;99.90;;;;;;5036966;28;20132;-74
2022/09/18 12:20:37;;;;;;;5.57;1.27;;;13.10;99.90;;;;;;5053481;28;20125;-74
2022/09/18 12:23:03;;;;;;;8.55;0.90;;;13.10;99.90;;;;;;5051502;28;20075;-74
2022/09/18 12:26:02;;;;;;;7.20;1.13;;;13.10;99.90;;;;;;5048817;28;20102;-73
2022/09/18 12:28:43;;;;;;;9.25;1.40;;;13.10;99.90;;;;;;5016772;28;20052;-74
2022/09/18 12:31:26;;;;;;;8.40;1.05;;;13.10;99.90;;;;;;5032823;28;20072;-73
2022/09/18 12:34:04;;;;;;;10.10;1.98;;;13.20;99.90;;;;;;5032489;28;20052;-73
2022/09/18 12:36:42;;;;;;;5.00;1.23;;;13.20;99.90;;;;;;5021357;28;20116;-72
2022/09/18 12:39:17;;;;;;;10.65;1.60;;;13.10;99.90;;;;;;5037293;28;20512;-73
2022/09/18 12:42:14;;;;;;;7.03;1.10;;;13.10;99.90;;;;;;5051433;28;20061;-73
2022/09/18 12:44:49;;;;;;;7.00;0.90;;;13.10;99.90;;;;;;5062611;28;20593;-72
2022/09/18 12:47:29;;;;;;;8.20;1.23;;;13.10;99.90;;;;;;5045536;28;20287;-73
2022/09/18 12:49:57;;;;;;;6.72;0.98;;;13.10;99.90;;;;;;5055115;28;20410;-74
2022/09/18 12:52:47;;;;;;;8.68;1.17;;;13.10;99.90;;;;;;5034783;28;22066;-74
2022/09/18 12:55:38;;;;;;;8.82;1.05;;;13.10;99.90;;;;;;5053087;28;20047;-73
2022/09/18 12:58:46;;;;;;;9.60;1.15;;;13.10;99.90;;;;;;5035076;28;20496;-73
2022/09/18 13:01:25;;;;;;;7.95;1.40;;;13.10;99.90;;;;;;5029932;28;20493;-73
2022/09/18 13:03:54;;;;;;;6.95;0.70;;;13.20;99.90;;;;;;5013773;28;20535;-74
2022/09/18 13:06:31;;;;;;;10.02;1.52;;;13.30;99.90;;;;;;5012141;28;20049;-73
2022/09/18 13:09:18;;;;;;;11.10;1.33;;;13.30;99.90;;;;;;5046093;28;20475;-73
2022/09/18 13:11:53;;;;;;;12.77;1.80;;;13.40;99.90;;;;;;5072984;28;20395;-74